sensor_id;sensor_type;location;lat;lon;timestamp;pressure;altitude;pressure_sealevel;temperature;humidity
21779;BME280;11050;52.222;20.916;2023-05-15T00:00:10;99872.44;;;17.76;43.93
21779;BME280;11050;52.222;20.916;2023-05-15T00:02:36;99863.59;;;17.74;44.56
21779;BME280;11050;52.222;20.916;2023-05-15T00:05:05;99863.59;;;17.74;44.82
21779;BME280;11050;52.222;20.916;2023-05-15T00:07:31;99861.63;;;17.75;44.15
21779;BME280;11050;52.222;20.916;2023-05-15T00:09:56;99853.09;;;17.71;44.26
21779;BME280;11050;52.222;20.916;2023-05-15T00:12:22;99854.25;;;17.70;44.69
21779;BME280;11050;52.222;20.916;2023-05-15T00:14:48;99844.56;;;17.68;44.92
21779;BME280;11050;52.222;20.916;2023-05-15T00:17:13;99853.75;;;17.68;44.84
21779;BME280;11050;52.222;20.916;2023-05-15T00:19:39;99846.00;;;17.65;44.42
21779;BME280;11050;52.222;20.916;2023-05-15T00:22:05;99842.41;;;17.65;44.87
21779;BME280;11050;52.222;20.916;2023-05-15T00:24:30;99846.31;;;17.64;44.66
21779;BME280;11050;52.222;20.916;2023-05-15T00:26:57;99838.63;;;17.61;44.99
21779;BME280;11050;52.222;20.916;2023-05-15T00:29:23;99834.19;;;17.60;44.24
21779;BME280;11050;52.222;20.916;2023-05-15T00:31:49;99840.06;;;17.58;44.26
21779;BME280;11050;52.222;20.916;2023-05-15T00:34:15;99832.03;;;17.57;44.88
21779;BME280;11050;52.222;20.916;2023-05-15T00:36:40;99831.53;;;17.55;45.07
21779;BME280;11050;52.222;20.916;2023-05-15T00:39:06;99825.97;;;17.55;44.38
21779;BME280;11050;52.222;20.916;2023-05-15T00:41:34;99819.06;;;17.52;44.95
21779;BME280;11050;52.222;20.916;2023-05-15T00:44:01;99815.78;;;17.50;45.08
21779;BME280;11050;52.222;20.916;2023-05-15T00:46:30;99814.72;;;17.46;44.64
21779;BME280;11050;52.222;20.916;2023-05-15T00:48:57;99807.22;;;17.47;45.29
21779;BME280;11050;52.222;20.916;2023-05-15T00:51:25;99801.97;;;17.45;45.15
21779;BME280;11050;52.222;20.916;2023-05-15T00:53:51;99820.06;;;17.43;45.02
21779;BME280;11050;52.222;20.916;2023-05-15T00:56:17;99808.44;;;17.41;45.02
21779;BME280;11050;52.222;20.916;2023-05-15T00:58:45;99824.59;;;17.39;45.11
21779;BME280;11050;52.222;20.916;2023-05-15T01:01:15;99839.31;;;17.39;44.93
21779;BME280;11050;52.222;20.916;2023-05-15T01:03:42;99824.41;;;17.35;45.63
21779;BME280;11050;52.222;20.916;2023-05-15T01:06:09;99827.50;;;17.34;45.81
21779;BME280;11050;52.222;20.916;2023-05-15T01:08:45;99814.75;;;17.33;46.05
21779;BME280;11050;52.222;20.916;2023-05-15T01:11:13;99802.63;;;17.29;45.65
21779;BME280;11050;52.222;20.916;2023-05-15T01:13:39;99797.06;;;17.29;46.14
21779;BME280;11050;52.222;20.916;2023-05-15T01:16:06;99813.72;;;17.29;45.78
21779;BME280;11050;52.222;20.916;2023-05-15T01:18:32;99812.91;;;17.28;46.18
21779;BME280;11050;52.222;20.916;2023-05-15T01:29:36;99780.59;;;17.19;46.92
21779;BME280;11050;52.222;20.916;2023-05-15T01:32:13;99766.00;;;17.13;46.18
21779;BME280;11050;52.222;20.916;2023-05-15T01:35:00;99774.03;;;17.15;46.23
21779;BME280;11050;52.222;20.916;2023-05-15T01:37:36;99775.16;;;17.14;46.70
21779;BME280;11050;52.222;20.916;2023-05-15T01:40:09;99777.75;;;17.10;46.74
21779;BME280;11050;52.222;20.916;2023-05-15T01:42:43;99777.31;;;17.03;47.57
21779;BME280;11050;52.222;20.916;2023-05-15T01:45:16;99770.66;;;17.04;46.74
21779;BME280;11050;52.222;20.916;2023-05-15T01:47:47;99746.69;;;16.94;46.83
21779;BME280;11050;52.222;20.916;2023-05-15T01:50:18;99762.13;;;17.00;47.49
21779;BME280;11050;52.222;20.916;2023-05-15T01:52:56;99760.78;;;16.98;47.42
21779;BME280;11050;52.222;20.916;2023-05-15T01:55:25;99746.19;;;16.92;47.85
21779;BME280;11050;52.222;20.916;2023-05-15T01:57:52;99745.03;;;16.93;47.76
21779;BME280;11050;52.222;20.916;2023-05-15T02:00:21;99742.88;;;16.90;47.55
21779;BME280;11050;52.222;20.916;2023-05-15T02:02:48;99744.00;;;16.89;48.10
21779;BME280;11050;52.222;20.916;2023-05-15T02:05:15;99744.84;;;16.90;47.97
21779;BME280;11050;52.222;20.916;2023-05-15T02:07:42;99747.59;;;16.90;48.14
21779;BME280;11050;52.222;20.916;2023-05-15T02:10:11;99759.22;;;16.92;47.86
21779;BME280;11050;52.222;20.916;2023-05-15T02:12:40;99763.16;;;16.91;48.00
21779;BME280;11050;52.222;20.916;2023-05-15T02:15:08;99748.75;;;16.89;47.99
21779;BME280;11050;52.222;20.916;2023-05-15T02:17:35;99740.44;;;16.89;48.42
21779;BME280;11050;52.222;20.916;2023-05-15T02:20:01;99735.47;;;16.86;48.32
21779;BME280;11050;52.222;20.916;2023-05-15T02:22:29;99743.19;;;16.89;48.50
21779;BME280;11050;52.222;20.916;2023-05-15T02:24:54;99735.69;;;16.89;48.56
21779;BME280;11050;52.222;20.916;2023-05-15T02:28:19;99737.34;;;16.90;47.96
21779;BME280;11050;52.222;20.916;2023-05-15T02:30:47;99730.13;;;16.89;48.83
21779;BME280;11050;52.222;20.916;2023-05-15T02:33:39;99712.97;;;16.87;48.44
21779;BME280;11050;52.222;20.916;2023-05-15T02:36:18;99714.63;;;16.88;48.90
21779;BME280;11050;52.222;20.916;2023-05-15T02:38:52;99710.50;;;16.86;48.62
21779;BME280;11050;52.222;20.916;2023-05-15T02:41:18;99688.28;;;16.86;48.96
21779;BME280;11050;52.222;20.916;2023-05-15T02:43:46;99680.91;;;16.81;49.32
21779;BME280;11050;52.222;20.916;2023-05-15T02:46:14;99701.47;;;16.80;49.08
21779;BME280;11050;52.222;20.916;2023-05-15T02:48:42;99689.25;;;16.81;50.02
21779;BME280;11050;52.222;20.916;2023-05-15T02:51:09;99684.81;;;16.80;49.82
21779;BME280;11050;52.222;20.916;2023-05-15T02:53:39;99675.69;;;16.80;49.78
21779;BME280;11050;52.222;20.916;2023-05-15T02:56:05;99669.81;;;16.81;49.40
21779;BME280;11050;52.222;20.916;2023-05-15T02:58:32;99651.63;;;16.75;49.82
21779;BME280;11050;52.222;20.916;2023-05-15T03:00:58;99651.63;;;16.75;49.65
21779;BME280;11050;52.222;20.916;2023-05-15T03:03:24;99673.38;;;16.82;49.80
21779;BME280;11050;52.222;20.916;2023-05-15T03:05:49;99667.56;;;16.83;49.56
21779;BME280;11050;52.222;20.916;2023-05-15T03:08:15;99662.00;;;16.83;49.47
21779;BME280;11050;52.222;20.916;2023-05-15T03:10:41;99661.38;;;16.86;49.76
21779;BME280;11050;52.222;20.916;2023-05-15T03:13:06;99642.44;;;16.88;49.07
21779;BME280;11050;52.222;20.916;2023-05-15T03:15:32;99649.34;;;16.91;49.56
21779;BME280;11050;52.222;20.916;2023-05-15T03:17:58;99626.94;;;16.87;49.64
21779;BME280;11050;52.222;20.916;2023-05-15T03:20:23;99635.47;;;16.91;49.19
21779;BME280;11050;52.222;20.916;2023-05-15T03:22:49;99638.53;;;16.89;49.87
21779;BME280;11050;52.222;20.916;2023-05-15T03:25:15;99626.31;;;16.90;49.99
21779;BME280;11050;52.222;20.916;2023-05-15T03:27:41;99624.56;;;16.94;49.40
21779;BME280;11050;52.222;20.916;2023-05-15T03:30:07;99618.38;;;16.97;49.66
21779;BME280;11050;52.222;20.916;2023-05-15T03:32:33;99610.78;;;16.89;49.42
21779;BME280;11050;52.222;20.916;2023-05-15T03:34:58;99616.75;;;16.96;49.65
21779;BME280;11050;52.222;20.916;2023-05-15T03:37:24;99610.88;;;16.98;49.32
21779;BME280;11050;52.222;20.916;2023-05-15T03:39:50;99594.53;;;16.96;49.38
21779;BME280;11050;52.222;20.916;2023-05-15T03:42:15;99591.25;;;16.94;49.42
21779;BME280;11050;52.222;20.916;2023-05-15T03:44:46;99604.81;;;16.96;49.93
21779;BME280;11050;52.222;20.916;2023-05-15T03:47:12;99601.38;;;16.99;49.30
21779;BME280;11050;52.222;20.916;2023-05-15T03:49:38;99597.19;;;17.01;49.73
21779;BME280;11050;52.222;20.916;2023-05-15T03:52:04;99591.63;;;17.01;49.41
21779;BME280;11050;52.222;20.916;2023-05-15T03:54:30;99596.53;;;17.04;49.92
21779;BME280;11050;52.222;20.916;2023-05-15T03:56:56;99608.16;;;17.06;49.52
21779;BME280;11050;52.222;20.916;2023-05-15T03:59:22;99605.88;;;17.08;50.80
21779;BME280;11050;52.222;20.916;2023-05-15T04:01:47;99594.50;;;17.10;50.58
21779;BME280;11050;52.222;20.916;2023-05-15T04:04:13;99590.88;;;17.10;50.52
21779;BME280;11050;52.222;20.916;2023-05-15T04:06:39;99592.00;;;17.08;50.85
21779;BME280;11050;52.222;20.916;2023-05-15T04:09:04;99583.38;;;17.10;50.74
21779;BME280;11050;52.222;20.916;2023-05-15T04:11:30;99579.47;;;17.11;50.70
21779;BME280;11050;52.222;20.916;2023-05-15T04:13:56;99578.03;;;17.14;50.47
21779;BME280;11050;52.222;20.916;2023-05-15T04:16:21;99560.53;;;17.13;51.24
21779;BME280;11050;52.222;20.916;2023-05-15T04:18:47;99572.97;;;17.16;50.88
21779;BME280;11050;52.222;20.916;2023-05-15T04:21:13;99568.53;;;17.15;51.71
21779;BME280;11050;52.222;20.916;2023-05-15T04:23:38;99557.75;;;17.13;51.35
21779;BME280;11050;52.222;20.916;2023-05-15T04:26:06;99556.31;;;17.16;51.67
21779;BME280;11050;52.222;20.916;2023-05-15T04:28:33;99544.69;;;17.14;51.20
21779;BME280;11050;52.222;20.916;2023-05-15T04:30:58;99541.78;;;17.19;51.85
21779;BME280;11050;52.222;20.916;2023-05-15T04:33:24;99552.41;;;17.17;51.58
21779;BME280;11050;52.222;20.916;2023-05-15T04:35:50;99545.41;;;17.19;51.27
21779;BME280;11050;52.222;20.916;2023-05-15T04:38:16;99552.25;;;17.22;51.80
21779;BME280;11050;52.222;20.916;2023-05-15T04:40:42;99558.03;;;17.25;51.39
21779;BME280;11050;52.222;20.916;2023-05-15T04:43:08;99554.28;;;17.30;51.00
21779;BME280;11050;52.222;20.916;2023-05-15T04:45:34;99545.44;;;17.28;51.73
21779;BME280;11050;52.222;20.916;2023-05-15T04:47:59;99554.78;;;17.32;52.29
21779;BME280;11050;52.222;20.916;2023-05-15T04:50:25;99547.09;;;17.29;52.33
21779;BME280;11050;52.222;20.916;2023-05-15T04:52:51;99539.78;;;17.33;52.19
21779;BME280;11050;52.222;20.916;2023-05-15T04:55:17;99542.34;;;17.29;53.16
21779;BME280;11050;52.222;20.916;2023-05-15T04:57:45;99543.16;;;17.30;53.29
21779;BME280;11050;52.222;20.916;2023-05-15T05:00:11;99536.78;;;17.29;53.55
21779;BME280;11050;52.222;20.916;2023-05-15T05:02:38;99527.16;;;17.27;54.12
21779;BME280;11050;52.222;20.916;2023-05-15T05:05:05;99531.06;;;17.26;53.94
21779;BME280;11050;52.222;20.916;2023-05-15T05:07:33;99527.47;;;17.25;54.56
21779;BME280;11050;52.222;20.916;2023-05-15T05:09:58;99525.50;;;17.26;55.62
21779;BME280;11050;52.222;20.916;2023-05-15T05:12:24;99519.94;;;17.26;55.55
21779;BME280;11050;52.222;20.916;2023-05-15T05:14:50;99521.91;;;17.25;55.38
21779;BME280;11050;52.222;20.916;2023-05-15T05:17:16;99508.84;;;17.26;56.41
21779;BME280;11050;52.222;20.916;2023-05-15T05:19:41;99504.94;;;17.27;55.74
21779;BME280;11050;52.222;20.916;2023-05-15T05:22:07;99504.44;;;17.25;56.26
21779;BME280;11050;52.222;20.916;2023-05-15T05:24:33;99511.59;;;17.26;56.75
21779;BME280;11050;52.222;20.916;2023-05-15T05:27:03;99498.38;;;17.23;56.81
21779;BME280;11050;52.222;20.916;2023-05-15T05:29:30;99503.94;;;17.23;56.71
21779;BME280;11050;52.222;20.916;2023-05-15T05:31:56;99499.38;;;17.27;57.40
21779;BME280;11050;52.222;20.916;2023-05-15T05:34:22;99495.97;;;17.30;56.43
21779;BME280;11050;52.222;20.916;2023-05-15T05:36:48;99497.47;;;17.36;55.95
21779;BME280;11050;52.222;20.916;2023-05-15T05:39:15;99485.72;;;17.39;56.96
21779;BME280;11050;52.222;20.916;2023-05-15T05:41:42;99498.22;;;17.50;56.39
21779;BME280;11050;52.222;20.916;2023-05-15T05:44:08;99494.81;;;17.53;56.08
21779;BME280;11050;52.222;20.916;2023-05-15T05:46:34;99495.50;;;17.58;55.94
21779;BME280;11050;52.222;20.916;2023-05-15T05:48:59;99505.38;;;17.73;55.21
21779;BME280;11050;52.222;20.916;2023-05-15T05:51:25;99498.53;;;17.79;55.42
21779;BME280;11050;52.222;20.916;2023-05-15T05:53:51;99498.22;;;17.80;56.08
21779;BME280;11050;52.222;20.916;2023-05-15T05:56:16;99504.81;;;17.93;57.35
21779;BME280;11050;52.222;20.916;2023-05-15T05:58:42;99502.06;;;18.02;57.46
21779;BME280;11050;52.222;20.916;2023-05-15T06:01:08;99507.94;;;18.00;56.84
21779;BME280;11050;52.222;20.916;2023-05-15T06:03:34;99511.56;;;18.01;56.21
21779;BME280;11050;52.222;20.916;2023-05-15T06:06:00;99509.56;;;18.01;56.32
21779;BME280;11050;52.222;20.916;2023-05-15T06:08:27;99509.06;;;17.99;57.44
21779;BME280;11050;52.222;20.916;2023-05-15T06:10:53;99518.06;;;17.96;56.87
21779;BME280;11050;52.222;20.916;2023-05-15T06:13:19;99520.16;;;17.90;57.71
21779;BME280;11050;52.222;20.916;2023-05-15T06:15:45;99510.81;;;17.86;58.90
21779;BME280;11050;52.222;20.916;2023-05-15T06:18:12;99518.00;;;17.79;60.63
21779;BME280;11050;52.222;20.916;2023-05-15T06:20:38;99530.34;;;17.64;60.64
21779;BME280;11050;52.222;20.916;2023-05-15T06:23:03;99522.09;;;17.51;61.29
21779;BME280;11050;52.222;20.916;2023-05-15T06:25:29;99523.16;;;17.41;63.19
21779;BME280;11050;52.222;20.916;2023-05-15T06:27:55;99532.88;;;17.30;63.38
21779;BME280;11050;52.222;20.916;2023-05-15T06:30:21;99532.31;;;17.20;66.10
21779;BME280;11050;52.222;20.916;2023-05-15T06:32:47;99529.31;;;17.08;68.85
21779;BME280;11050;52.222;20.916;2023-05-15T06:35:12;99533.47;;;16.96;70.78
21779;BME280;11050;52.222;20.916;2023-05-15T06:37:38;99532.59;;;16.87;71.97
21779;BME280;11050;52.222;20.916;2023-05-15T06:40:05;99534.56;;;16.73;74.10
21779;BME280;11050;52.222;20.916;2023-05-15T06:42:31;99528.44;;;16.63;74.84
21779;BME280;11050;52.222;20.916;2023-05-15T06:44:57;99529.50;;;16.53;76.58
21779;BME280;11050;52.222;20.916;2023-05-15T06:47:24;99531.09;;;16.41;79.00
21779;BME280;11050;52.222;20.916;2023-05-15T06:49:49;99524.78;;;16.27;82.27
21779;BME280;11050;52.222;20.916;2023-05-15T06:52:15;99514.53;;;16.13;84.62
21779;BME280;11050;52.222;20.916;2023-05-15T06:54:41;99524.06;;;16.07;85.83
21779;BME280;11050;52.222;20.916;2023-05-15T06:57:07;99519.25;;;15.99;90.06
21779;BME280;11050;52.222;20.916;2023-05-15T06:59:33;99516.91;;;15.93;87.72
21779;BME280;11050;52.222;20.916;2023-05-15T07:02:01;99522.00;;;15.86;90.29
21779;BME280;11050;52.222;20.916;2023-05-15T07:04:27;99517.72;;;15.80;92.19
21779;BME280;11050;52.222;20.916;2023-05-15T07:06:54;99522.03;;;15.72;94.10
21779;BME280;11050;52.222;20.916;2023-05-15T07:09:20;99526.22;;;15.70;95.32
21779;BME280;11050;52.222;20.916;2023-05-15T07:11:45;99521.59;;;15.65;95.63
21779;BME280;11050;52.222;20.916;2023-05-15T07:14:12;99504.66;;;15.53;95.50
21779;BME280;11050;52.222;20.916;2023-05-15T07:16:38;99510.50;;;15.52;97.45
21779;BME280;11050;52.222;20.916;2023-05-15T07:19:03;99505.25;;;15.50;98.15
21779;BME280;11050;52.222;20.916;2023-05-15T07:21:29;99509.91;;;15.55;100.00
21779;BME280;11050;52.222;20.916;2023-05-15T07:23:55;99507.53;;;15.62;100.00
21779;BME280;11050;52.222;20.916;2023-05-15T07:26:20;99516.25;;;15.69;100.00
21779;BME280;11050;52.222;20.916;2023-05-15T07:28:46;99523.03;;;15.76;100.00
21779;BME280;11050;52.222;20.916;2023-05-15T07:31:12;99518.25;;;15.82;100.00
21779;BME280;11050;52.222;20.916;2023-05-15T07:33:37;99512.47;;;15.92;100.00
21779;BME280;11050;52.222;20.916;2023-05-15T07:36:04;99509.31;;;15.98;100.00
21779;BME280;11050;52.222;20.916;2023-05-15T07:38:29;99505.38;;;15.99;100.00
21779;BME280;11050;52.222;20.916;2023-05-15T07:40:56;99508.88;;;16.05;100.00
21779;BME280;11050;52.222;20.916;2023-05-15T07:43:22;99501.28;;;16.10;100.00
21779;BME280;11050;52.222;20.916;2023-05-15T07:45:47;99505.56;;;16.17;100.00
21779;BME280;11050;52.222;20.916;2023-05-15T07:48:19;99490.28;;;16.19;100.00
21779;BME280;11050;52.222;20.916;2023-05-15T07:50:46;99495.59;;;16.29;100.00
21779;BME280;11050;52.222;20.916;2023-05-15T07:53:13;99486.34;;;16.34;100.00
21779;BME280;11050;52.222;20.916;2023-05-15T07:55:42;99478.72;;;16.39;100.00
21779;BME280;11050;52.222;20.916;2023-05-15T07:58:08;99486.72;;;16.54;100.00
21779;BME280;11050;52.222;20.916;2023-05-15T08:00:34;99478.91;;;16.56;100.00
21779;BME280;11050;52.222;20.916;2023-05-15T08:03:00;99477.13;;;16.74;100.00
21779;BME280;11050;52.222;20.916;2023-05-15T08:05:26;99474.16;;;16.92;100.00
21779;BME280;11050;52.222;20.916;2023-05-15T08:07:52;99474.72;;;17.03;98.90
21779;BME280;11050;52.222;20.916;2023-05-15T08:10:17;99482.25;;;17.02;97.76
21779;BME280;11050;52.222;20.916;2023-05-15T08:12:43;99475.41;;;16.86;96.90
21779;BME280;11050;52.222;20.916;2023-05-15T08:15:11;99466.63;;;16.71;96.52
21779;BME280;11050;52.222;20.916;2023-05-15T08:17:37;99464.19;;;16.69;98.28
21779;BME280;11050;52.222;20.916;2023-05-15T08:20:04;99463.25;;;16.74;99.36
21779;BME280;11050;52.222;20.916;2023-05-15T08:22:30;99465.88;;;16.79;99.00
21779;BME280;11050;52.222;20.916;2023-05-15T08:24:57;99452.16;;;16.74;98.97
21779;BME280;11050;52.222;20.916;2023-05-15T08:27:23;99459.41;;;16.83;99.64
21779;BME280;11050;52.222;20.916;2023-05-15T08:29:49;99463.38;;;16.91;99.38
21779;BME280;11050;52.222;20.916;2023-05-15T08:32:15;99458.00;;;16.94;100.00
21779;BME280;11050;52.222;20.916;2023-05-15T08:34:40;99453.47;;;16.98;99.58
21779;BME280;11050;52.222;20.916;2023-05-15T08:37:06;99446.25;;;16.97;99.43
21779;BME280;11050;52.222;20.916;2023-05-15T08:39:32;99447.78;;;17.03;98.73
21779;BME280;11050;52.222;20.916;2023-05-15T08:44:45;99446.63;;;17.04;97.95
21779;BME280;11050;52.222;20.916;2023-05-15T08:47:13;99442.22;;;17.03;98.33
21779;BME280;11050;52.222;20.916;2023-05-15T08:49:54;99441.88;;;16.96;98.47
21779;BME280;11050;52.222;20.916;2023-05-15T08:52:25;99423.44;;;16.78;99.24
21779;BME280;11050;52.222;20.916;2023-05-15T08:54:51;99425.97;;;16.66;98.38
21779;BME280;11050;52.222;20.916;2023-05-15T08:57:17;99413.00;;;16.53;99.20
21779;BME280;11050;52.222;20.916;2023-05-15T08:59:45;99410.94;;;16.45;100.00
21779;BME280;11050;52.222;20.916;2023-05-15T09:02:10;99422.25;;;16.35;100.00
21779;BME280;11050;52.222;20.916;2023-05-15T09:04:36;99419.50;;;16.22;100.00
21779;BME280;11050;52.222;20.916;2023-05-15T09:07:02;99424.81;;;16.09;100.00
21779;BME280;11050;52.222;20.916;2023-05-15T09:09:32;99426.22;;;16.07;100.00
21779;BME280;11050;52.222;20.916;2023-05-15T09:11:59;99438.97;;;16.08;100.00
21779;BME280;11050;52.222;20.916;2023-05-15T09:14:28;99442.25;;;16.10;100.00
21779;BME280;11050;52.222;20.916;2023-05-15T09:16:54;99451.56;;;16.14;100.00
21779;BME280;11050;52.222;20.916;2023-05-15T09:19:21;99433.28;;;16.27;100.00
21779;BME280;11050;52.222;20.916;2023-05-15T09:21:47;99438.66;;;16.45;100.00
21779;BME280;11050;52.222;20.916;2023-05-15T09:24:20;99432.31;;;16.67;100.00
21779;BME280;11050;52.222;20.916;2023-05-15T09:27:02;99424.28;;;16.79;100.00
21779;BME280;11050;52.222;20.916;2023-05-15T09:29:36;99422.25;;;16.93;100.00
21779;BME280;11050;52.222;20.916;2023-05-15T09:34:35;99421.34;;;17.06;100.00
21779;BME280;11050;52.222;20.916;2023-05-15T09:37:04;99413.97;;;17.01;100.00
21779;BME280;11050;52.222;20.916;2023-05-15T09:39:31;99407.19;;;16.85;100.00
21779;BME280;11050;52.222;20.916;2023-05-15T09:42:12;99398.41;;;16.70;100.00
21779;BME280;11050;52.222;20.916;2023-05-15T09:44:45;99404.22;;;16.60;100.00
21779;BME280;11050;52.222;20.916;2023-05-15T09:47:14;99407.31;;;16.45;100.00
21779;BME280;11050;52.222;20.916;2023-05-15T09:49:44;99408.56;;;16.39;100.00
21779;BME280;11050;52.222;20.916;2023-05-15T09:52:11;99404.56;;;16.45;100.00
21779;BME280;11050;52.222;20.916;2023-05-15T09:54:37;99403.00;;;16.52;100.00
21779;BME280;11050;52.222;20.916;2023-05-15T09:57:08;99401.25;;;16.56;100.00
21779;BME280;11050;52.222;20.916;2023-05-15T09:59:34;99400.31;;;16.61;100.00
21779;BME280;11050;52.222;20.916;2023-05-15T10:02:00;99387.06;;;16.58;100.00
21779;BME280;11050;52.222;20.916;2023-05-15T10:04:25;99388.22;;;16.57;100.00
21779;BME280;11050;52.222;20.916;2023-05-15T10:06:51;99384.97;;;16.63;100.00
21779;BME280;11050;52.222;20.916;2023-05-15T10:09:17;99383.97;;;16.59;100.00
21779;BME280;11050;52.222;20.916;2023-05-15T10:11:49;99377.44;;;16.55;100.00
21779;BME280;11050;52.222;20.916;2023-05-15T10:14:18;99376.44;;;16.51;100.00
21779;BME280;11050;52.222;20.916;2023-05-15T10:16:46;99395.41;;;16.44;100.00
21779;BME280;11050;52.222;20.916;2023-05-15T10:19:12;99386.41;;;16.39;100.00
21779;BME280;11050;52.222;20.916;2023-05-15T10:21:40;99389.09;;;16.30;100.00
21779;BME280;11050;52.222;20.916;2023-05-15T10:24:08;99390.97;;;16.35;100.00
21779;BME280;11050;52.222;20.916;2023-05-15T10:26:37;99395.34;;;16.36;100.00
21779;BME280;11050;52.222;20.916;2023-05-15T10:29:17;99399.13;;;16.40;100.00
21779;BME280;11050;52.222;20.916;2023-05-15T10:31:43;99405.81;;;16.39;100.00
21779;BME280;11050;52.222;20.916;2023-05-15T10:34:10;99395.84;;;16.38;100.00
21779;BME280;11050;52.222;20.916;2023-05-15T10:36:37;99401.41;;;16.38;100.00
21779;BME280;11050;52.222;20.916;2023-05-15T10:39:05;99410.56;;;16.38;100.00
21779;BME280;11050;52.222;20.916;2023-05-15T10:41:38;99404.50;;;16.36;100.00
21779;BME280;11050;52.222;20.916;2023-05-15T10:44:05;99405.19;;;16.42;100.00
21779;BME280;11050;52.222;20.916;2023-05-15T10:46:33;99397.81;;;16.37;100.00
21779;BME280;11050;52.222;20.916;2023-05-15T10:49:00;99390.00;;;16.39;100.00
21779;BME280;11050;52.222;20.916;2023-05-15T10:51:30;99393.28;;;16.41;100.00
21779;BME280;11050;52.222;20.916;2023-05-15T10:53:59;99395.34;;;16.36;100.00
21779;BME280;11050;52.222;20.916;2023-05-15T10:56:33;99395.78;;;16.29;100.00
21779;BME280;11050;52.222;20.916;2023-05-15T10:59:10;99397.44;;;16.30;100.00
21779;BME280;11050;52.222;20.916;2023-05-15T11:01:38;99394.66;;;16.30;100.00
21779;BME280;11050;52.222;20.916;2023-05-15T11:04:16;99385.50;;;16.30;100.00
21779;BME280;11050;52.222;20.916;2023-05-15T11:06:48;99390.88;;;16.26;100.00
21779;BME280;11050;52.222;20.916;2023-05-15T11:11:57;99384.16;;;16.05;100.00
21779;BME280;11050;52.222;20.916;2023-05-15T11:14:29;99386.84;;;15.96;100.00
21779;BME280;11050;52.222;20.916;2023-05-15T11:17:45;99387.78;;;15.92;100.00
21779;BME280;11050;52.222;20.916;2023-05-15T11:25:08;99375.81;;;15.69;100.00
21779;BME280;11050;52.222;20.916;2023-05-15T11:27:42;99384.75;;;15.66;100.00
21779;BME280;11050;52.222;20.916;2023-05-15T11:35:37;99371.50;;;15.63;100.00
21779;BME280;11050;52.222;20.916;2023-05-15T11:38:14;99364.66;;;15.61;100.00
21779;BME280;11050;52.222;20.916;2023-05-15T11:41:00;99363.31;;;15.58;100.00
21779;BME280;11050;52.222;20.916;2023-05-15T11:43:31;99370.09;;;15.52;100.00
21779;BME280;11050;52.222;20.916;2023-05-15T11:46:04;99364.53;;;15.52;100.00
21779;BME280;11050;52.222;20.916;2023-05-15T11:48:33;99360.22;;;15.60;100.00
21779;BME280;11050;52.222;20.916;2023-05-15T11:51:03;99346.06;;;15.61;100.00
21779;BME280;11050;52.222;20.916;2023-05-15T11:53:30;99358.91;;;15.57;100.00
21779;BME280;11050;52.222;20.916;2023-05-15T11:55:57;99350.28;;;15.59;100.00
21779;BME280;11050;52.222;20.916;2023-05-15T11:58:24;99346.81;;;15.53;100.00
21779;BME280;11050;52.222;20.916;2023-05-15T12:00:51;99357.56;;;15.55;100.00
21779;BME280;11050;52.222;20.916;2023-05-15T12:03:33;99351.22;;;15.54;100.00
21779;BME280;11050;52.222;20.916;2023-05-15T12:06:01;99342.91;;;15.54;100.00
21779;BME280;11050;52.222;20.916;2023-05-15T12:08:35;99344.34;;;15.52;100.00
21779;BME280;11050;52.222;20.916;2023-05-15T12:11:04;99347.13;;;15.52;100.00
21779;BME280;11050;52.222;20.916;2023-05-15T12:13:31;99345.06;;;15.57;100.00
21779;BME280;11050;52.222;20.916;2023-05-15T12:15:58;99337.28;;;15.59;100.00
21779;BME280;11050;52.222;20.916;2023-05-15T12:18:24;99344.44;;;15.60;100.00
21779;BME280;11050;52.222;20.916;2023-05-15T12:20:53;99343.09;;;15.58;100.00
21779;BME280;11050;52.222;20.916;2023-05-15T12:23:24;99348.75;;;15.53;100.00
21779;BME280;11050;52.222;20.916;2023-05-15T12:25:55;99344.97;;;15.49;100.00
21779;BME280;11050;52.222;20.916;2023-05-15T12:28:23;99335.22;;;15.51;100.00
21779;BME280;11050;52.222;20.916;2023-05-15T12:30:50;99343.09;;;15.58;100.00
21779;BME280;11050;52.222;20.916;2023-05-15T12:33:16;99341.16;;;15.58;100.00
21779;BME280;11050;52.222;20.916;2023-05-15T12:35:49;99344.44;;;15.60;100.00
21779;BME280;11050;52.222;20.916;2023-05-15T12:38:18;99327.69;;;15.65;100.00
21779;BME280;11050;52.222;20.916;2023-05-15T12:40:44;99330.56;;;15.74;100.00
21779;BME280;11050;52.222;20.916;2023-05-15T12:43:12;99322.44;;;15.77;100.00
21779;BME280;11050;52.222;20.916;2023-05-15T12:45:39;99321.09;;;15.75;100.00
21779;BME280;11050;52.222;20.916;2023-05-15T12:48:05;99309.72;;;15.76;100.00
21779;BME280;11050;52.222;20.916;2023-05-15T12:50:34;99309.09;;;15.79;100.00
21779;BME280;11050;52.222;20.916;2023-05-15T12:53:03;99304.16;;;15.76;100.00
21779;BME280;11050;52.222;20.916;2023-05-15T12:55:32;99302.56;;;15.75;100.00
21779;BME280;11050;52.222;20.916;2023-05-15T12:58:07;99305.69;;;15.82;100.00
21779;BME280;11050;52.222;20.916;2023-05-15T13:00:39;99298.22;;;15.83;100.00
21779;BME280;11050;52.222;20.916;2023-05-15T13:03:09;99295.31;;;15.88;100.00
21779;BME280;11050;52.222;20.916;2023-05-15T13:05:36;99291.81;;;15.96;100.00
21779;BME280;11050;52.222;20.916;2023-05-15T13:08:04;99290.69;;;15.97;100.00
21779;BME280;11050;52.222;20.916;2023-05-15T13:10:34;99288.41;;;15.99;100.00
21779;BME280;11050;52.222;20.916;2023-05-15T13:13:00;99282.66;;;15.95;100.00
21779;BME280;11050;52.222;20.916;2023-05-15T13:15:37;99283.50;;;15.96;100.00